createdAt,value
2022-07-27T00:01:14.321Z,99.90
2022-07-27T00:03:42.309Z,99.90
2022-07-27T00:06:09.951Z,99.90
2022-07-27T00:08:37.671Z,99.90
2022-07-27T00:11:05.507Z,99.90
2022-07-27T00:13:32.988Z,99.90
2022-07-27T00:16:00.978Z,99.90
2022-07-27T00:18:28.358Z,99.90
2022-07-27T00:20:55.934Z,99.90
2022-07-27T00:23:23.377Z,99.90
2022-07-27T00:25:50.824Z,99.90
2022-07-27T00:28:18.187Z,99.90
2022-07-27T00:30:45.619Z,99.90
2022-07-27T00:33:17.474Z,99.90
2022-07-27T00:35:46.067Z,99.90
2022-07-27T00:38:13.469Z,99.90
2022-07-27T00:40:41.017Z,99.90
2022-07-27T00:43:08.417Z,99.90
2022-07-27T00:45:35.951Z,99.90
2022-07-27T00:48:29.223Z,99.90
2022-07-27T00:50:57.390Z,99.90
2022-07-27T00:53:25.350Z,99.90
2022-07-27T00:55:53.325Z,99.90
2022-07-27T00:58:20.965Z,99.90
2022-07-27T01:00:48.375Z,99.90
2022-07-27T01:03:16.353Z,99.90
2022-07-27T01:05:44.317Z,99.90
2022-07-27T01:08:14.149Z,99.90
2022-07-27T01:10:43.366Z,99.90
2022-07-27T01:13:12.303Z,99.90
2022-07-27T01:15:41.984Z,99.90
2022-07-27T01:18:13.331Z,99.90
2022-07-27T01:20:42.571Z,99.90
2022-07-27T01:23:10.972Z,99.90
2022-07-27T01:25:41.017Z,99.90
2022-07-27T01:28:08.360Z,99.90
2022-07-27T01:30:36.227Z,99.90
2022-07-27T01:33:05.616Z,99.90
2022-07-27T01:35:33.492Z,99.90
2022-07-27T01:38:01.134Z,99.90
2022-07-27T01:40:28.491Z,99.90
2022-07-27T01:42:55.906Z,99.90
2022-07-27T01:45:23.252Z,99.90
2022-07-27T01:47:50.599Z,99.90
2022-07-27T01:50:17.987Z,99.90
2022-07-27T01:52:45.339Z,99.90
2022-07-27T01:55:12.868Z,99.90
2022-07-27T01:57:40.548Z,99.90
2022-07-27T02:00:11.760Z,99.90
2022-07-27T02:02:42.553Z,99.90
2022-07-27T02:05:13.900Z,99.90
2022-07-27T02:07:42.064Z,99.90
2022-07-27T02:10:10.578Z,99.90
2022-07-27T02:12:38.354Z,99.90
2022-07-27T02:15:15.856Z,99.90
2022-07-27T02:17:47.574Z,99.90
2022-07-27T02:20:19.125Z,99.90
2022-07-27T02:22:47.012Z,99.90
2022-07-27T02:25:15.949Z,99.90
2022-07-27T02:27:43.687Z,99.90
2022-07-27T02:30:12.787Z,99.90
2022-07-27T02:32:40.835Z,99.90
2022-07-27T02:35:18.591Z,99.90
2022-07-27T02:37:47.605Z,99.90
2022-07-27T02:40:18.900Z,99.90
2022-07-27T02:42:47.367Z,99.90
2022-07-27T02:45:15.994Z,99.90
2022-07-27T02:47:44.746Z,99.90
2022-07-27T02:50:13.268Z,99.90
2022-07-27T02:52:40.821Z,99.90
2022-07-27T02:55:09.614Z,99.90
2022-07-27T02:57:40.829Z,99.90
2022-07-27T03:00:12.698Z,99.90
2022-07-27T03:02:40.228Z,99.90
2022-07-27T03:05:10.168Z,99.90
2022-07-27T03:07:38.230Z,99.90
2022-07-27T03:10:07.254Z,99.90
2022-07-27T03:13:01.306Z,99.90
2022-07-27T03:15:29.702Z,99.90
2022-07-27T03:17:57.396Z,99.90
2022-07-27T03:20:25.150Z,99.90
2022-07-27T03:22:54.188Z,99.90
2022-07-27T03:25:22.872Z,99.90
2022-07-27T03:27:50.255Z,99.90
2022-07-27T03:30:18.128Z,99.90
2022-07-27T03:32:49.978Z,99.90
2022-07-27T03:35:17.443Z,99.90
2022-07-27T03:37:48.185Z,99.90
2022-07-27T03:40:16.166Z,99.90
2022-07-27T03:42:43.628Z,99.90
2022-07-27T03:45:11.170Z,99.90
2022-07-27T03:47:38.518Z,99.90
2022-07-27T03:50:06.275Z,99.90
2022-07-27T03:52:33.640Z,99.90
2022-07-27T03:55:01.070Z,99.90
2022-07-27T03:57:28.450Z,99.90
2022-07-27T03:59:55.783Z,99.90
2022-07-27T04:02:23.216Z,99.90
2022-07-27T04:04:50.939Z,99.90
2022-07-27T04:07:22.384Z,99.90
2022-07-27T04:09:49.726Z,99.90
2022-07-27T04:12:20.084Z,99.90
2022-07-27T04:14:48.218Z,99.90
2022-07-27T04:17:54.611Z,99.90
2022-07-27T04:20:04.942Z,99.90
2022-07-27T04:22:32.893Z,99.90
2022-07-27T04:25:00.295Z,99.90
2022-07-27T04:27:31.383Z,99.90
2022-07-27T04:29:58.830Z,99.90
2022-07-27T04:32:29.430Z,99.90
2022-07-27T04:34:56.792Z,99.90
2022-07-27T04:37:24.237Z,99.90
2022-07-27T04:39:51.571Z,99.90
2022-07-27T04:42:18.958Z,99.90
2022-07-27T04:44:46.281Z,99.90
2022-07-27T04:47:14.641Z,99.90
2022-07-27T04:49:42.694Z,99.90
2022-07-27T04:52:10.019Z,99.90
2022-07-27T04:54:37.539Z,99.90
2022-07-27T04:57:04.873Z,99.90
2022-07-27T04:59:32.321Z,99.90
2022-07-27T05:02:00.208Z,99.90
2022-07-27T05:04:28.309Z,99.90
2022-07-27T05:06:57.909Z,99.90
2022-07-27T05:09:25.593Z,99.90
2022-07-27T05:11:53.323Z,99.90
2022-07-27T05:14:21.239Z,99.90
2022-07-27T05:16:51.240Z,99.90
2022-07-27T05:19:18.680Z,99.90
2022-07-27T05:21:46.073Z,99.90
2022-07-27T05:24:13.758Z,99.90
2022-07-27T05:26:41.727Z,99.90
2022-07-27T05:29:09.538Z,99.90
2022-07-27T05:31:37.279Z,99.90
2022-07-27T05:34:04.671Z,99.90
2022-07-27T05:36:32.269Z,99.90
2022-07-27T05:38:59.683Z,99.90
2022-07-27T05:41:27.915Z,99.90
2022-07-27T05:43:55.767Z,99.90
2022-07-27T05:46:24.902Z,99.90
2022-07-27T05:48:53.846Z,99.90
2022-07-27T05:51:21.298Z,99.90
2022-07-27T05:53:49.031Z,99.90
2022-07-27T05:56:16.611Z,99.90
2022-07-27T05:58:44.088Z,99.90
2022-07-27T06:01:11.502Z,99.90
2022-07-27T06:03:39.581Z,99.90
2022-07-27T06:06:25.584Z,99.90
2022-07-27T06:08:54.100Z,99.90
2022-07-27T06:11:22.288Z,99.90
2022-07-27T06:13:50.714Z,99.90
2022-07-27T06:16:18.898Z,99.90
2022-07-27T06:18:46.467Z,99.90
2022-07-27T06:21:14.329Z,99.90
2022-07-27T06:23:41.996Z,99.90
2022-07-27T06:26:09.564Z,99.90
2022-07-27T06:28:37.555Z,99.90
2022-07-27T06:31:06.164Z,99.90
2022-07-27T06:33:35.468Z,99.90
2022-07-27T06:36:03.177Z,99.90
2022-07-27T06:38:30.599Z,99.90
2022-07-27T06:40:58.306Z,99.90
2022-07-27T06:43:28.411Z,99.90
2022-07-27T06:45:56.237Z,99.90
2022-07-27T06:48:23.992Z,99.90
2022-07-27T06:50:52.178Z,99.90
2022-07-27T06:53:21.445Z,99.90
2022-07-27T06:55:49.783Z,99.90
2022-07-27T06:58:17.944Z,99.90
2022-07-27T07:00:46.208Z,99.90
2022-07-27T07:03:13.631Z,99.90
2022-07-27T07:05:43.821Z,99.90
2022-07-27T07:08:12.342Z,99.90
2022-07-27T07:10:41.263Z,99.90
2022-07-27T07:13:09.810Z,99.90
2022-07-27T07:15:39.277Z,99.90
2022-07-27T07:18:07.802Z,99.80
2022-07-27T07:20:36.510Z,98.40
2022-07-27T07:23:04.575Z,97.10
2022-07-27T07:25:33.010Z,96.20
2022-07-27T07:28:00.691Z,94.00
2022-07-27T07:30:28.556Z,92.80
2022-07-27T07:32:56.133Z,92.80
2022-07-27T07:35:24.012Z,91.80
2022-07-27T07:37:51.898Z,89.90
2022-07-27T07:43:07.333Z,82.00
2022-07-27T07:45:38.216Z,82.00
2022-07-27T07:48:21.324Z,79.90
2022-07-27T07:50:54.054Z,75.40
2022-07-27T07:53:22.786Z,71.50
2022-07-27T07:55:52.189Z,68.10
2022-07-27T07:58:20.543Z,66.80
2022-07-27T08:00:48.899Z,67.40
2022-07-27T08:03:16.514Z,63.90
2022-07-27T08:05:44.462Z,62.50
2022-07-27T08:08:12.095Z,63.70
2022-07-27T08:10:39.452Z,65.70
2022-07-27T08:13:06.907Z,64.40
2022-07-27T08:15:35.953Z,66.90
2022-07-27T08:18:05.495Z,71.50
2022-07-27T08:20:33.626Z,73.70
2022-07-27T08:23:01.020Z,73.30
2022-07-27T08:25:28.474Z,66.30
2022-07-27T08:27:56.387Z,60.90
2022-07-27T08:30:24.527Z,60.10
2022-07-27T08:32:55.980Z,58.60
2022-07-27T08:35:23.816Z,60.10
2022-07-27T08:37:51.869Z,65.60
2022-07-27T08:40:39.555Z,69.50
2022-07-27T08:43:09.890Z,70.90
2022-07-27T08:45:38.256Z,72.70
2022-07-27T08:48:06.089Z,72.80
2022-07-27T08:50:35.341Z,75.10
2022-07-27T08:53:08.674Z,77.00
2022-07-27T08:55:42.269Z,75.70
2022-07-27T08:58:11.347Z,73.90
2022-07-27T09:00:42.487Z,69.20
2022-07-27T09:03:19.041Z,67.50
2022-07-27T09:05:51.239Z,65.50
2022-07-27T09:08:22.057Z,65.70
2022-07-27T09:10:49.746Z,65.90
2022-07-27T09:13:22.161Z,63.70
2022-07-27T09:16:16.952Z,59.10
2022-07-27T09:18:43.097Z,56.00
2022-07-27T09:21:19.127Z,56.20
2022-07-27T09:23:52.625Z,54.00
2022-07-27T09:26:32.358Z,53.80
2022-07-27T09:29:02.395Z,52.50
2022-07-27T09:31:30.449Z,53.70
2022-07-27T09:34:00.320Z,56.00
2022-07-27T09:36:30.249Z,59.60
2022-07-27T09:39:03.593Z,62.80
2022-07-27T09:41:46.704Z,65.10
2022-07-27T09:44:32.853Z,67.80
2022-07-27T09:47:19.620Z,68.40
2022-07-27T09:49:47.380Z,64.70
2022-07-27T09:52:26.619Z,58.30
2022-07-27T09:54:53.998Z,50.90
2022-07-27T09:57:21.437Z,49.00
2022-07-27T09:59:49.282Z,51.40
2022-07-27T10:02:16.993Z,54.20
2022-07-27T10:04:44.953Z,57.30
2022-07-27T10:07:14.204Z,58.50
2022-07-27T10:09:41.997Z,59.60
2022-07-27T10:12:09.709Z,61.50
2022-07-27T10:14:37.320Z,63.10
2022-07-27T10:17:07.580Z,62.90
2022-07-27T10:19:45.638Z,60.70
2022-07-27T10:22:14.282Z,59.20
2022-07-27T10:24:41.851Z,55.00
2022-07-27T10:27:30.839Z,50.40
2022-07-27T10:29:58.519Z,45.50
2022-07-27T10:32:33.350Z,44.40
2022-07-27T10:35:01.891Z,48.70
2022-07-27T10:37:31.869Z,51.40
2022-07-27T10:40:24.630Z,55.40
2022-07-27T10:43:16.595Z,56.70
2022-07-27T10:46:00.034Z,57.80
2022-07-27T10:48:42.757Z,58.50
2022-07-27T10:51:16.771Z,58.50
2022-07-27T10:56:47.352Z,58.00
2022-07-27T10:59:15.170Z,50.70
2022-07-27T11:01:57.180Z,44.50
2022-07-27T11:04:24.973Z,44.60
2022-07-27T11:07:23.896Z,47.40
2022-07-27T11:12:36.606Z,49.20
2022-07-27T11:15:04.693Z,45.90
2022-07-27T11:17:56.218Z,44.90
2022-07-27T11:20:24.079Z,45.10
2022-07-27T11:25:39.135Z,48.00
2022-07-27T11:28:09.344Z,47.60
2022-07-27T11:30:37.250Z,42.90
2022-07-27T11:33:05.725Z,42.80
2022-07-27T11:35:33.676Z,44.80
2022-07-27T11:38:07.669Z,47.40
2022-07-27T11:40:58.056Z,45.60
2022-07-27T11:43:38.500Z,40.70
2022-07-27T11:46:27.381Z,41.30
2022-07-27T11:49:07.009Z,43.10
2022-07-27T11:51:47.037Z,45.80
2022-07-27T11:54:36.200Z,46.60
2022-07-27T11:57:18.658Z,48.00
2022-07-27T11:59:46.806Z,48.50
2022-07-27T12:02:20.284Z,48.80
2022-07-27T12:04:50.930Z,50.00
2022-07-27T12:07:28.194Z,49.60
2022-07-27T12:09:58.148Z,50.40
2022-07-27T12:12:28.828Z,46.70
2022-07-27T12:14:59.099Z,42.40
2022-07-27T12:17:39.299Z,39.60
2022-07-27T12:20:11.481Z,40.10
2022-07-27T12:22:46.635Z,41.90
2022-07-27T12:25:17.276Z,43.00
2022-07-27T12:28:01.155Z,40.40
2022-07-27T12:30:32.652Z,37.40
2022-07-27T12:33:01.295Z,40.30
2022-07-27T12:35:36.745Z,43.50
2022-07-27T12:38:09.566Z,44.30
2022-07-27T12:40:48.427Z,40.00
2022-07-27T12:43:27.302Z,37.10
2022-07-27T12:45:55.659Z,36.60
2022-07-27T12:48:27.844Z,37.50
2022-07-27T12:51:05.204Z,37.40
2022-07-27T12:53:33.837Z,39.20
2022-07-27T12:56:05.353Z,41.90
2022-07-27T12:58:32.955Z,43.30
2022-07-27T13:01:00.834Z,41.60
2022-07-27T13:03:28.555Z,40.80
2022-07-27T13:05:56.191Z,38.70
2022-07-27T13:08:23.678Z,38.50
2022-07-27T13:10:54.155Z,42.70
2022-07-27T13:13:24.692Z,47.20
2022-07-27T13:15:52.516Z,48.70
2022-07-27T13:18:23.723Z,50.80
2022-07-27T13:20:52.526Z,53.10
2022-07-27T13:23:20.788Z,55.40
2022-07-27T13:25:48.510Z,56.70
2022-07-27T13:28:15.897Z,57.50
2022-07-27T13:30:43.301Z,56.80
2022-07-27T13:33:11.693Z,58.30
2022-07-27T13:35:39.088Z,58.30
2022-07-27T13:38:06.441Z,59.40
2022-07-27T13:40:33.852Z,58.60
2022-07-27T13:43:01.221Z,58.10
2022-07-27T13:45:28.656Z,58.80
2022-07-27T13:48:36.910Z,58.50
2022-07-27T13:51:04.498Z,55.80
2022-07-27T13:53:32.500Z,51.70
2022-07-27T13:56:01.983Z,48.50
2022-07-27T13:58:30.049Z,49.60
2022-07-27T14:00:57.650Z,51.40
2022-07-27T14:03:25.587Z,52.30
2022-07-27T14:05:55.004Z,51.80
2022-07-27T14:08:22.346Z,50.90
2022-07-27T14:10:51.309Z,49.80
2022-07-27T14:13:21.839Z,51.00
2022-07-27T14:15:54.327Z,52.90
2022-07-27T14:18:24.782Z,55.80
2022-07-27T14:20:52.771Z,56.20
2022-07-27T14:23:21.030Z,57.20
2022-07-27T14:25:48.524Z,58.70
2022-07-27T14:28:17.161Z,58.80
2022-07-27T14:30:45.314Z,57.20
2022-07-27T14:33:13.109Z,55.50
2022-07-27T14:35:41.037Z,54.70
2022-07-27T14:38:09.619Z,53.40
2022-07-27T14:40:38.390Z,54.30
2022-07-27T14:43:07.040Z,54.90
2022-07-27T14:45:45.105Z,53.50
2022-07-27T14:48:28.263Z,53.50
2022-07-27T14:51:01.133Z,53.60
2022-07-27T14:53:29.294Z,53.60
2022-07-27T14:55:57.056Z,54.10
2022-07-27T14:58:24.631Z,54.80
2022-07-27T15:00:52.707Z,54.60
2022-07-27T15:03:21.222Z,55.90
2022-07-27T15:05:50.929Z,55.90
2022-07-27T15:08:19.930Z,56.50
2022-07-27T15:10:48.705Z,57.40
2022-07-27T15:13:17.763Z,59.00
2022-07-27T15:15:48.410Z,57.80
2022-07-27T15:18:18.704Z,56.50
2022-07-27T15:20:47.858Z,57.20
2022-07-27T15:23:16.430Z,58.50
2022-07-27T15:25:44.373Z,59.10
2022-07-27T15:28:12.296Z,59.70
2022-07-27T15:30:40.182Z,60.60
2022-07-27T15:33:08.026Z,61.90
2022-07-27T15:35:35.900Z,62.80
2022-07-27T15:38:03.883Z,62.10
2022-07-27T15:40:37.482Z,62.50
2022-07-27T15:43:06.993Z,64.70
2022-07-27T15:45:38.595Z,64.20
2022-07-27T15:48:11.395Z,65.30
2022-07-27T15:50:40.987Z,64.80
2022-07-27T15:53:08.830Z,64.90
2022-07-27T15:55:37.986Z,65.50
2022-07-27T15:58:07.249Z,64.60
2022-07-27T16:00:40.533Z,65.60
2022-07-27T16:03:12.921Z,66.70
2022-07-27T16:05:44.085Z,66.60
2022-07-27T16:08:11.750Z,67.20
2022-07-27T16:10:40.207Z,67.20
2022-07-27T16:13:09.376Z,67.30
2022-07-27T16:15:57.682Z,67.50
2022-07-27T16:18:25.540Z,66.20
2022-07-27T16:20:54.241Z,66.60
2022-07-27T16:23:22.875Z,67.20
2022-07-27T16:26:04.551Z,67.30
2022-07-27T16:28:36.112Z,67.20
2022-07-27T16:31:05.183Z,67.20
2022-07-27T16:33:33.380Z,67.30
2022-07-27T16:36:00.727Z,65.50
2022-07-27T16:38:30.216Z,64.40
2022-07-27T16:40:58.027Z,66.30
2022-07-27T16:43:37.371Z,65.50
2022-07-27T16:46:08.396Z,67.00
2022-07-27T16:48:41.890Z,67.90
2022-07-27T16:51:12.208Z,68.10
2022-07-27T16:53:44.561Z,66.60
2022-07-27T16:56:12.458Z,67.10
2022-07-27T16:58:40.605Z,67.80
2022-07-27T17:01:08.764Z,67.90
2022-07-27T17:03:36.687Z,69.00
2022-07-27T17:06:06.409Z,69.00
2022-07-27T17:08:36.368Z,69.90
2022-07-27T17:11:05.445Z,70.80
2022-07-27T17:13:38.954Z,71.50
2022-07-27T17:16:17.523Z,72.00
2022-07-27T17:18:45.201Z,72.10
2022-07-27T17:21:13.167Z,71.80
2022-07-27T17:23:42.470Z,71.50
2022-07-27T17:26:13.272Z,70.30
2022-07-27T17:28:41.508Z,71.60
2022-07-27T17:31:12.533Z,71.60
2022-07-27T17:33:40.905Z,72.80
2022-07-27T17:36:14.646Z,72.40
2022-07-27T17:38:44.083Z,72.20
2022-07-27T17:41:13.358Z,73.00
2022-07-27T17:43:40.912Z,71.90
2022-07-27T17:46:10.213Z,72.30
2022-07-27T17:48:38.511Z,73.30
2022-07-27T17:51:07.687Z,74.40
2022-07-27T17:53:35.070Z,75.50
2022-07-27T17:56:04.557Z,76.40
2022-07-27T17:58:32.154Z,76.20
2022-07-27T18:01:01.138Z,76.80
2022-07-27T18:03:29.098Z,76.30
2022-07-27T18:05:57.174Z,74.80
2022-07-27T18:08:25.147Z,75.80
2022-07-27T18:10:52.548Z,76.30
2022-07-27T18:13:20.214Z,76.30
2022-07-27T18:15:48.230Z,76.80
2022-07-27T18:18:20.618Z,77.10
2022-07-27T18:20:51.970Z,77.60
2022-07-27T18:23:21.136Z,78.50
2022-07-27T18:25:49.229Z,78.90
2022-07-27T18:28:17.159Z,79.90
2022-07-27T18:30:46.462Z,81.00
2022-07-27T18:33:14.991Z,82.20
2022-07-27T18:35:43.570Z,82.80
2022-07-27T18:38:12.395Z,83.60
2022-07-27T18:40:42.208Z,82.20
2022-07-27T18:43:10.719Z,82.30
2022-07-27T18:45:39.339Z,82.80
2022-07-27T18:48:10.037Z,82.60
2022-07-27T18:50:39.538Z,82.50
2022-07-27T18:53:08.738Z,83.60
2022-07-27T18:55:37.329Z,84.80
2022-07-27T18:58:05.705Z,85.90
2022-07-27T19:01:00.472Z,86.60
2022-07-27T19:03:28.623Z,87.40
2022-07-27T19:05:56.379Z,88.10
2022-07-27T19:08:24.262Z,88.40
2022-07-27T19:10:52.631Z,89.50
2022-07-27T19:13:20.189Z,90.10
2022-07-27T19:15:48.129Z,90.40
2022-07-27T19:18:15.572Z,91.10
2022-07-27T19:20:42.951Z,91.80
2022-07-27T19:23:11.103Z,92.70
2022-07-27T19:25:38.494Z,93.40
2022-07-27T19:28:05.956Z,94.20
2022-07-27T19:30:33.541Z,94.70
2022-07-27T19:33:01.181Z,95.40
2022-07-27T19:35:28.759Z,96.30
2022-07-27T19:37:56.100Z,97.10
2022-07-27T19:43:11.322Z,98.90
2022-07-27T19:45:39.229Z,99.80
2022-07-27T19:48:08.208Z,99.90
2022-07-27T19:50:35.613Z,99.90
2022-07-27T19:53:03.245Z,99.90
2022-07-27T19:55:30.830Z,99.90
2022-07-27T19:58:00.514Z,99.90
2022-07-27T20:00:27.846Z,99.90
2022-07-27T20:02:55.355Z,99.90
2022-07-27T20:05:22.842Z,99.90
2022-07-27T20:07:50.209Z,99.90
2022-07-27T20:10:17.681Z,99.90
2022-07-27T20:12:44.981Z,99.90
2022-07-27T20:15:12.429Z,99.90
2022-07-27T20:17:40.768Z,99.90
2022-07-27T20:20:10.662Z,99.90
2022-07-27T20:22:41.173Z,99.90
2022-07-27T20:25:10.455Z,99.90
2022-07-27T20:27:38.835Z,99.90
2022-07-27T20:30:07.737Z,99.90
2022-07-27T20:32:36.011Z,99.90
2022-07-27T20:35:04.395Z,99.90
2022-07-27T20:37:32.446Z,99.90
2022-07-27T20:39:59.803Z,99.90
2022-07-27T20:42:27.422Z,99.90
2022-07-27T20:44:54.931Z,99.90
2022-07-27T20:47:22.288Z,99.90
2022-07-27T20:49:49.725Z,99.90
2022-07-27T20:52:17.120Z,99.90
2022-07-27T20:54:44.529Z,99.90
2022-07-27T20:57:11.928Z,99.90
2022-07-27T20:59:39.381Z,99.90
2022-07-27T21:02:07.664Z,99.90
2022-07-27T21:04:35.487Z,99.90
2022-07-27T21:07:02.892Z,99.90
2022-07-27T21:09:31.530Z,99.90
2022-07-27T21:11:58.954Z,99.90
2022-07-27T21:14:26.474Z,99.90
2022-07-27T21:16:53.929Z,99.90
2022-07-27T21:19:22.533Z,99.90
2022-07-27T21:21:50.117Z,99.90
2022-07-27T21:24:20.984Z,99.90
2022-07-27T21:26:52.814Z,99.90
2022-07-27T21:29:21.210Z,99.90
2022-07-27T21:31:50.083Z,99.90
2022-07-27T21:34:20.603Z,99.90
2022-07-27T21:36:48.638Z,99.90
2022-07-27T21:39:17.920Z,99.90
2022-07-27T21:41:45.781Z,99.90
2022-07-27T21:44:13.582Z,99.90
2022-07-27T21:46:41.262Z,99.90
2022-07-27T21:49:08.713Z,99.90
2022-07-27T21:51:36.337Z,99.90
2022-07-27T21:54:03.846Z,99.90
2022-07-27T21:56:41.066Z,99.90
2022-07-27T21:59:08.934Z,99.90
2022-07-27T22:01:36.748Z,99.90
2022-07-27T22:04:04.287Z,99.90
2022-07-27T22:06:31.740Z,99.90
2022-07-27T22:08:59.366Z,99.90
2022-07-27T22:11:26.705Z,99.90
2022-07-27T22:13:54.058Z,99.90
2022-07-27T22:16:21.471Z,99.90
2022-07-27T22:18:48.843Z,99.90
2022-07-27T22:21:16.474Z,99.90
2022-07-27T22:23:44.846Z,99.90
2022-07-27T22:26:12.265Z,99.90
2022-07-27T22:28:39.977Z,99.90
2022-07-27T22:31:21.190Z,99.90
2022-07-27T22:33:51.245Z,99.90
2022-07-27T22:36:18.763Z,99.90
2022-07-27T22:38:46.355Z,99.90
2022-07-27T22:41:14.957Z,99.90
2022-07-27T22:43:42.466Z,99.90
2022-07-27T22:46:10.071Z,99.90
2022-07-27T22:48:38.250Z,99.90
2022-07-27T22:51:06.178Z,99.90
2022-07-27T22:53:33.995Z,99.90
2022-07-27T22:56:01.361Z,99.90
2022-07-27T22:58:28.838Z,99.90
2022-07-27T23:00:59.622Z,99.90
2022-07-27T23:03:27.615Z,99.90
2022-07-27T23:05:55.312Z,99.90
2022-07-27T23:08:22.723Z,99.90
2022-07-27T23:10:50.705Z,99.90
2022-07-27T23:13:19.673Z,99.90
2022-07-27T23:15:47.743Z,99.90
2022-07-27T23:18:16.767Z,99.90
2022-07-27T23:20:45.393Z,99.90
2022-07-27T23:23:16.235Z,99.90
2022-07-27T23:25:45.454Z,99.90
2022-07-27T23:28:15.309Z,99.90
2022-07-27T23:30:43.564Z,99.90
2022-07-27T23:33:11.180Z,99.90
2022-07-27T23:35:39.411Z,99.90
2022-07-27T23:38:06.765Z,99.90
2022-07-27T23:40:34.609Z,99.90
2022-07-27T23:43:02.127Z,99.90
2022-07-27T23:45:29.677Z,99.90
2022-07-27T23:47:57.053Z,99.90
2022-07-27T23:50:24.438Z,99.90
2022-07-27T23:52:52.005Z,99.90
2022-07-27T23:55:19.421Z,99.90
2022-07-27T23:57:47.257Z,99.90
